Time;durP1;ratioP1;P1;durP2;ratioP2;P2;SDS_P1;SDS_P2;PMS_P1;PMS_P2;Temp;Humidity;BMP_temperature;BMP_pressure;BME280_temperature;BME280_humidity;BME280_pressure;Samples;Min_cycle;Max_cycle;Signal;HPM_P1;HPM_P2
2021/12/10 00:02:02;;;;;;;14.85;7.18;;;4.60;85.40;;;;;;5018084;28;20182;-82
2021/12/10 00:04:32;;;;;;;15.00;6.95;;;4.50;85.30;;;;;;5001237;28;20312;-82
2021/12/10 00:07:05;;;;;;;17.85;7.90;;;4.60;85.30;;;;;;5022160;28;20202;-83
2021/12/10 00:09:41;;;;;;;18.80;7.90;;;4.60;85.10;;;;;;5038181;28;20185;-82
2021/12/10 00:12:43;;;;;;;13.60;7.72;;;4.80;85.10;;;;;;5038764;28;20181;-82
2021/12/10 00:15:09;;;;;;;10.85;5.93;;;4.70;85.20;;;;;;5025765;28;20252;-82
2021/12/10 00:17:35;;;;;;;12.60;6.75;;;4.70;85.20;;;;;;5025614;28;20204;-81
2021/12/10 00:20:03;;;;;;;11.27;6.60;;;4.70;85.00;;;;;;5024150;28;20223;-81
2021/12/10 00:22:39;;;;;;;12.85;7.25;;;4.60;84.90;;;;;;5038759;28;20417;-82
2021/12/10 00:25:09;;;;;;;13.55;6.45;;;4.70;84.90;;;;;;5041946;28;20280;-82
2021/12/10 00:27:35;;;;;;;11.90;6.00;;;4.70;84.90;;;;;;5040313;28;20193;-83
2021/12/10 00:30:09;;;;;;;22.52;6.55;;;4.70;84.80;;;;;;5039491;28;20265;-82
2021/12/10 00:32:41;;;;;;;14.05;6.15;;;4.70;84.80;;;;;;5039096;28;20211;-82
2021/12/10 00:35:35;;;;;;;15.30;6.78;;;4.70;84.90;;;;;;5022802;28;20209;-82
2021/12/10 00:38:01;;;;;;;15.38;5.68;;;5.00;84.70;;;;;;5018789;28;20194;-82
2021/12/10 00:40:28;;;;;;;14.80;6.63;;;4.90;84.30;;;;;;5017027;28;20187;-81
2021/12/10 00:42:55;;;;;;;17.88;6.97;;;4.90;84.20;;;;;;5017215;28;20419;-83
2021/12/10 00:45:21;;;;;;;10.63;6.07;;;4.90;83.80;;;;;;5018809;28;20228;-82
2021/12/10 00:47:49;;;;;;;13.90;6.35;;;4.90;83.80;;;;;;5017791;28;20210;-81
2021/12/10 00:50:22;;;;;;;9.35;6.22;;;5.00;83.80;;;;;;5018433;28;20175;-82
2021/12/10 00:52:48;;;;;;;14.52;6.28;;;4.90;83.70;;;;;;5018871;28;20187;-82
2021/12/10 00:55:15;;;;;;;12.68;5.47;;;4.90;83.80;;;;;;5016446;28;20194;-82
2021/12/10 00:57:41;;;;;;;8.55;5.45;;;5.00;83.80;;;;;;5020358;28;20178;-82
2021/12/10 01:00:13;;;;;;;17.77;4.95;;;5.00;83.60;;;;;;5023380;28;20249;-82
2021/12/10 01:02:39;;;;;;;18.55;6.57;;;5.00;83.60;;;;;;5022942;28;20175;-81
2021/12/10 01:05:06;;;;;;;11.15;5.68;;;5.10;83.60;;;;;;5008064;28;20203;-82
2021/12/10 01:07:35;;;;;;;12.27;5.90;;;5.00;83.40;;;;;;5025425;28;20221;-81
2021/12/10 01:10:09;;;;;;;16.92;6.10;;;5.00;83.30;;;;;;5039753;28;20268;-82
2021/12/10 01:12:40;;;;;;;12.07;6.03;;;5.10;83.40;;;;;;5046443;28;20224;-82
2021/12/10 01:28:52;;;;;;;8.73;5.45;;;5.10;83.10;;;;;;5038313;28;20633;-82
2021/12/10 01:31:19;;;;;;;7.55;4.07;;;5.00;83.20;;;;;;5036774;28;20261;-81
2021/12/10 01:33:46;;;;;;;9.70;4.50;;;4.90;83.60;;;;;;5036615;28;20181;-82
2021/12/10 01:36:12;;;;;;;8.95;4.63;;;5.00;83.50;;;;;;5037798;28;20185;-81
2021/12/10 01:38:41;;;;;;;14.27;4.03;;;5.10;83.60;;;;;;5020919;28;20182;-81
2021/12/10 01:41:11;;;;;;;11.70;4.93;;;5.20;83.60;;;;;;5038680;28;20253;-82
2021/12/10 01:43:40;;;;;;;8.30;4.53;;;5.30;83.30;;;;;;5020755;28;20253;-82
2021/12/10 01:46:14;;;;;;;5.53;4.03;;;5.20;82.70;;;;;;5039495;28;20194;-82
2021/12/10 01:48:52;;;;;;;9.13;4.78;;;5.10;82.80;;;;;;5038407;28;20180;-82
2021/12/10 01:51:23;;;;;;;9.13;4.28;;;5.20;82.90;;;;;;5042174;28;20181;-83
2021/12/10 01:53:51;;;;;;;9.57;4.13;;;5.30;83.00;;;;;;5054713;28;20205;-82
2021/12/10 01:56:23;;;;;;;4.88;3.80;;;5.30;82.80;;;;;;5036021;28;20196;-83
2021/12/10 01:58:50;;;;;;;11.10;4.43;;;5.30;83.00;;;;;;5048996;28;20174;-82
2021/12/10 02:01:22;;;;;;;10.85;4.63;;;5.30;83.10;;;;;;5037108;28;20216;-82
2021/12/10 02:03:50;;;;;;;4.85;3.90;;;5.30;83.30;;;;;;5034521;28;20198;-82
2021/12/10 02:06:16;;;;;;;11.13;3.85;;;5.40;83.40;;;;;;5032972;28;20209;-81
2021/12/10 02:08:43;;;;;;;14.07;6.57;;;5.30;83.50;;;;;;5019481;28;20777;-82
2021/12/10 02:11:09;;;;;;;14.23;4.40;;;5.30;83.90;;;;;;5019089;28;20187;-82
2021/12/10 02:13:38;;;;;;;15.18;4.60;;;5.30;84.40;;;;;;5026039;28;20649;-81
2021/12/10 02:16:05;;;;;;;6.70;4.10;;;5.10;84.90;;;;;;5033569;28;20629;-81
2021/12/10 02:18:31;;;;;;;10.77;3.60;;;5.20;85.30;;;;;;5003538;28;20178;-81
2021/12/10 02:21:03;;;;;;;9.30;3.43;;;5.10;85.40;;;;;;5020264;28;20202;-82
2021/12/10 02:23:38;;;;;;;8.20;4.20;;;5.00;85.60;;;;;;5018120;28;20424;-82
2021/12/10 02:26:07;;;;;;;8.23;4.15;;;5.20;85.90;;;;;;5020333;28;20200;-81
2021/12/10 02:28:33;;;;;;;9.98;4.25;;;5.10;85.70;;;;;;5018822;28;20186;-82
2021/12/10 02:30:59;;;;;;;12.18;4.05;;;5.20;85.70;;;;;;5019264;28;20178;-82
2021/12/10 02:33:26;;;;;;;10.35;3.55;;;5.00;85.50;;;;;;5019799;28;20171;-82
2021/12/10 02:35:52;;;;;;;14.60;3.58;;;5.10;85.80;;;;;;5018706;28;20197;-82
2021/12/10 02:38:19;;;;;;;6.93;3.40;;;5.10;85.70;;;;;;5019914;28;20174;-81
2021/12/10 02:40:48;;;;;;;4.88;2.72;;;5.20;85.60;;;;;;5019378;28;20190;-82
2021/12/10 02:43:15;;;;;;;11.75;3.70;;;5.30;85.50;;;;;;5019787;28;20619;-82
2021/12/10 02:45:44;;;;;;;12.18;3.45;;;5.30;85.40;;;;;;5019050;28;20612;-82
2021/12/10 02:48:10;;;;;;;8.57;3.22;;;5.30;85.50;;;;;;5018887;28;20240;-82
2021/12/10 02:50:37;;;;;;;11.50;2.77;;;5.40;85.40;;;;;;5018675;28;20174;-81
2021/12/10 02:53:05;;;;;;;6.90;2.95;;;5.30;85.60;;;;;;5018118;28;20456;-82
2021/12/10 02:55:32;;;;;;;5.13;2.72;;;5.30;86.00;;;;;;5020128;28;20237;-82
2021/12/10 02:58:04;;;;;;;10.60;3.25;;;5.20;86.10;;;;;;5033651;28;20570;-81
2021/12/10 03:00:34;;;;;;;6.07;3.00;;;5.20;86.30;;;;;;5038876;28;20177;-81
2021/12/10 03:03:00;;;;;;;7.63;2.83;;;5.20;86.50;;;;;;5038015;28;20178;-81
2021/12/10 03:05:26;;;;;;;10.17;3.83;;;5.20;86.80;;;;;;5038400;28;20210;-82
2021/12/10 03:07:52;;;;;;;4.25;2.75;;;5.30;87.10;;;;;;5039489;28;20464;-81
2021/12/10 03:10:23;;;;;;;3.67;2.33;;;5.30;87.20;;;;;;5040999;28;20182;-82
2021/12/10 03:12:49;;;;;;;6.28;1.75;;;5.30;87.40;;;;;;5038268;28;20579;-81
2021/12/10 03:15:18;;;;;;;3.88;2.65;;;5.30;87.40;;;;;;5038611;28;20194;-82
2021/12/10 03:17:46;;;;;;;9.73;2.58;;;5.30;87.50;;;;;;5036755;28;20182;-82
2021/12/10 03:20:16;;;;;;;3.65;2.13;;;5.30;87.60;;;;;;5024382;28;20198;-83
2021/12/10 03:22:42;;;;;;;7.97;2.20;;;5.20;87.90;;;;;;5017684;28;20270;-82
2021/12/10 03:25:12;;;;;;;9.10;1.77;;;5.20;88.00;;;;;;5018399;28;20195;-84
2021/12/10 03:27:38;;;;;;;10.30;2.45;;;5.10;88.20;;;;;;5033336;28;20229;-83
2021/12/10 03:30:09;;;;;;;9.82;1.60;;;5.10;88.50;;;;;;5037651;28;20182;-84
2021/12/10 03:32:36;;;;;;;2.90;1.60;;;5.10;88.80;;;;;;5037823;28;20633;-83
2021/12/10 03:35:09;;;;;;;4.15;2.28;;;5.00;89.00;;;;;;5038306;28;20197;-83
2021/12/10 03:37:35;;;;;;;5.43;1.85;;;5.00;89.20;;;;;;5038102;28;20181;-81
2021/12/10 03:40:03;;;;;;;2.45;1.52;;;5.00;89.40;;;;;;5039138;28;20202;-81
2021/12/10 03:42:29;;;;;;;3.47;1.40;;;5.10;89.60;;;;;;5034593;28;20178;-81
2021/12/10 03:44:54;;;;;;;5.10;1.40;;;4.80;89.20;;;;;;5036960;28;20283;-81
2021/12/10 03:47:20;;;;;;;5.93;1.60;;;5.00;89.60;;;;;;5036587;28;20259;-83
2021/12/10 03:49:46;;;;;;;4.43;1.40;;;5.00;89.80;;;;;;5035625;28;20178;-83
2021/12/10 03:52:12;;;;;;;3.10;1.50;;;5.00;90.00;;;;;;5036653;28;20440;-82
2021/12/10 03:54:39;;;;;;;5.10;1.53;;;5.00;90.10;;;;;;5034689;28;20442;-83
2021/12/10 03:57:05;;;;;;;2.25;1.27;;;4.90;90.20;;;;;;5034211;28;20417;-83
2021/12/10 03:59:35;;;;;;;1.73;1.40;;;5.00;90.30;;;;;;5034271;28;20654;-82
2021/12/10 04:02:03;;;;;;;1.50;1.00;;;4.90;90.40;;;;;;5011310;28;20178;-83
2021/12/10 04:04:36;;;;;;;6.25;1.75;;;4.90;90.30;;;;;;5017644;28;20211;-82
2021/12/10 04:07:06;;;;;;;5.18;1.20;;;4.90;90.30;;;;;;5019390;28;20208;-83
2021/12/10 04:09:32;;;;;;;3.63;1.10;;;4.90;90.20;;;;;;5019452;28;20202;-83
2021/12/10 04:11:58;;;;;;;3.28;1.33;;;4.80;90.10;;;;;;5018000;28;20178;-83
2021/12/10 04:14:24;;;;;;;3.05;1.40;;;4.80;90.10;;;;;;5034678;28;20695;-83
2021/12/10 04:16:56;;;;;;;1.15;0.90;;;4.80;90.20;;;;;;5040443;28;20568;-84
2021/12/10 04:19:25;;;;;;;4.72;1.40;;;4.80;90.20;;;;;;5034595;28;20209;-82
2021/12/10 04:21:52;;;;;;;4.70;1.30;;;4.80;90.20;;;;;;5033848;28;20197;-83
2021/12/10 04:24:20;;;;;;;2.53;1.17;;;4.80;90.10;;;;;;5036414;28;20197;-82
2021/12/10 04:26:48;;;;;;;2.67;1.10;;;4.90;90.20;;;;;;5037574;28;20202;-83
2021/12/10 04:29:14;;;;;;;1.88;1.10;;;4.80;89.80;;;;;;5035374;28;20174;-83
2021/12/10 04:31:41;;;;;;;1.90;1.20;;;4.80;90.00;;;;;;5037508;28;20256;-83
2021/12/10 04:34:07;;;;;;;2.80;2.00;;;4.80;89.90;;;;;;5034028;28;20202;-83
2021/12/10 04:36:34;;;;;;;1.20;1.10;;;4.80;89.80;;;;;;5017047;28;20244;-83
2021/12/10 04:39:00;;;;;;;1.30;1.20;;;4.70;89.70;;;;;;5017755;28;20468;-83
2021/12/10 04:41:26;;;;;;;1.95;1.20;;;4.70;89.80;;;;;;5016779;28;20186;-83
2021/12/10 04:43:52;;;;;;;1.23;1.13;;;4.70;89.90;;;;;;5017385;28;20202;-83
2021/12/10 04:46:19;;;;;;;6.78;1.40;;;4.70;90.00;;;;;;5017443;28;20672;-82
2021/12/10 04:48:55;;;;;;;1.92;1.10;;;4.80;90.20;;;;;;5017695;28;20516;-82
2021/12/10 04:51:24;;;;;;;1.80;1.10;;;4.80;90.20;;;;;;5000727;28;20183;-82
2021/12/10 04:53:51;;;;;;;2.55;1.10;;;4.70;90.30;;;;;;5016975;28;20187;-82
2021/12/10 04:56:17;;;;;;;1.10;1.00;;;4.80;90.30;;;;;;5016189;28;20182;-83
2021/12/10 04:58:43;;;;;;;1.50;1.40;;;4.70;90.30;;;;;;5022785;28;20171;-83
2021/12/10 05:01:09;;;;;;;2.78;1.98;;;4.70;90.40;;;;;;5021623;28;20187;-83
2021/12/10 05:03:34;;;;;;;2.50;1.10;;;4.70;90.40;;;;;;5022135;28;20186;-83
2021/12/10 05:06:03;;;;;;;1.45;1.30;;;4.60;90.60;;;;;;5024149;28;20417;-83
2021/12/10 05:08:34;;;;;;;4.00;1.55;;;4.70;90.90;;;;;;5025281;28;20198;-83
2021/12/10 05:11:02;;;;;;;4.00;1.60;;;4.60;90.80;;;;;;5024691;28;20252;-83
2021/12/10 05:13:28;;;;;;;2.63;1.20;;;4.60;90.80;;;;;;5030625;28;20182;-82
2021/12/10 05:15:58;;;;;;;1.50;1.40;;;4.60;90.80;;;;;;5042591;28;20273;-82
2021/12/10 05:18:33;;;;;;;2.90;1.35;;;4.60;91.40;;;;;;5042102;28;20178;-82
2021/12/10 05:20:59;;;;;;;3.15;1.20;;;4.50;90.60;;;;;;5037862;28;20235;-83
2021/12/10 05:23:25;;;;;;;1.88;1.10;;;4.60;90.70;;;;;;5037238;28;20261;-83
2021/12/10 05:25:51;;;;;;;4.43;1.37;;;4.60;90.60;;;;;;5022498;28;20704;-80
2021/12/10 05:28:18;;;;;;;4.57;1.58;;;4.70;90.80;;;;;;5022016;28;20468;-80
2021/12/10 05:30:45;;;;;;;2.13;1.13;;;4.80;90.60;;;;;;5022398;28;20186;-81
2021/12/10 05:33:16;;;;;;;1.55;1.45;;;4.70;90.40;;;;;;5001609;28;20199;-83
2021/12/10 05:35:43;;;;;;;5.20;1.60;;;4.70;90.30;;;;;;5018913;28;20233;-83
2021/12/10 05:38:09;;;;;;;1.75;1.50;;;4.60;90.30;;;;;;5017827;28;20173;-83
2021/12/10 05:40:34;;;;;;;4.77;1.83;;;4.60;90.50;;;;;;5016383;28;20213;-82
2021/12/10 05:43:00;;;;;;;4.60;1.60;;;4.70;90.60;;;;;;5031329;28;20424;-83
2021/12/10 05:45:26;;;;;;;4.80;1.47;;;4.60;90.50;;;;;;5037773;28;20517;-83
2021/12/10 05:47:52;;;;;;;5.70;1.58;;;4.50;90.60;;;;;;5036629;28;20209;-83
2021/12/10 05:50:21;;;;;;;1.47;1.30;;;4.50;90.90;;;;;;5036503;28;20658;-83
2021/12/10 05:52:47;;;;;;;3.35;1.88;;;4.60;91.00;;;;;;5037406;28;20409;-83
2021/12/10 05:55:13;;;;;;;7.13;1.77;;;4.70;90.90;;;;;;5037174;28;20247;-84
2021/12/10 05:57:40;;;;;;;4.13;1.65;;;4.70;90.80;;;;;;5036024;28;20276;-83
2021/12/10 06:00:10;;;;;;;4.15;1.50;;;4.70;90.70;;;;;;5034665;28;20284;-83
2021/12/10 06:02:37;;;;;;;1.27;1.17;;;4.70;90.50;;;;;;5039954;28;20241;-83
2021/12/10 06:05:03;;;;;;;4.93;1.70;;;4.80;90.50;;;;;;5036331;28;20208;-83
2021/12/10 06:07:29;;;;;;;2.15;1.05;;;4.80;90.40;;;;;;5035488;28;20198;-83
2021/12/10 06:09:55;;;;;;;7.03;3.40;;;4.90;90.40;;;;;;5036559;28;20181;-83
2021/12/10 06:12:21;;;;;;;4.00;2.03;;;5.00;90.20;;;;;;5036140;28;20173;-83
2021/12/10 06:14:47;;;;;;;1.70;1.00;;;4.90;90.00;;;;;;5035195;28;20444;-83
2021/12/10 06:17:14;;;;;;;4.40;1.50;;;4.80;89.90;;;;;;5037734;28;20189;-83
2021/12/10 06:19:39;;;;;;;7.45;1.20;;;4.70;90.10;;;;;;5027924;28;20417;-82
2021/12/10 06:22:06;;;;;;;1.30;0.90;;;4.60;89.90;;;;;;5034617;28;20253;-83
2021/12/10 06:24:33;;;;;;;3.60;1.20;;;4.60;90.00;;;;;;5037108;28;20185;-83
2021/12/10 06:26:59;;;;;;;3.38;1.10;;;4.80;90.10;;;;;;5036444;28;20304;-83
2021/12/10 06:29:26;;;;;;;2.03;1.13;;;4.80;90.00;;;;;;5036791;28;20192;-83
2021/12/10 06:31:54;;;;;;;2.80;1.27;;;4.60;89.90;;;;;;5037948;28;20421;-83
2021/12/10 06:34:20;;;;;;;4.03;1.20;;;4.70;90.10;;;;;;5038744;28;20209;-83
2021/12/10 06:36:48;;;;;;;1.30;1.20;;;4.60;89.90;;;;;;5037642;28;20189;-83
2021/12/10 06:39:19;;;;;;;9.98;1.55;;;4.50;90.00;;;;;;5038663;28;20182;-83
2021/12/10 06:41:52;;;;;;;2.75;1.67;;;4.60;90.10;;;;;;5040349;28;20162;-84
2021/12/10 06:44:18;;;;;;;1.58;1.10;;;4.60;90.10;;;;;;5049136;28;20206;-84
2021/12/10 06:46:45;;;;;;;3.35;1.40;;;4.80;90.20;;;;;;5044351;28;20252;-83
2021/12/10 06:49:12;;;;;;;1.35;1.08;;;4.80;90.10;;;;;;5040676;28;20205;-83
2021/12/10 06:51:38;;;;;;;1.65;1.23;;;5.00;90.00;;;;;;5045062;28;20186;-83
2021/12/10 06:54:04;;;;;;;3.17;1.05;;;5.20;89.90;;;;;;5051584;28;20225;-83
2021/12/10 06:56:32;;;;;;;1.60;1.40;;;5.30;89.80;;;;;;5033772;28;20183;-83
2021/12/10 06:58:59;;;;;;;3.75;1.30;;;5.30;89.60;;;;;;5019337;28;20523;-83
2021/12/10 07:01:28;;;;;;;2.42;1.30;;;5.10;89.20;;;;;;5025554;28;20185;-84
2021/12/10 07:03:55;;;;;;;2.38;1.55;;;5.20;89.20;;;;;;5021386;28;20230;-83
2021/12/10 07:06:24;;;;;;;5.18;1.52;;;5.30;89.10;;;;;;5021187;28;20179;-83
2021/12/10 07:08:50;;;;;;;5.13;1.83;;;5.20;88.90;;;;;;5023975;28;20548;-83
2021/12/10 07:11:18;;;;;;;6.78;1.80;;;5.10;88.90;;;;;;5024132;28;20205;-82
2021/12/10 07:13:49;;;;;;;1.50;1.40;;;5.00;88.90;;;;;;5020674;28;20175;-82
2021/12/10 07:16:15;;;;;;;6.15;1.70;;;4.80;88.90;;;;;;5020071;28;20198;-81
2021/12/10 07:18:41;;;;;;;3.10;2.45;;;4.90;89.40;;;;;;5021497;28;20174;-82
2021/12/10 07:21:08;;;;;;;5.85;2.40;;;4.80;89.10;;;;;;5018067;28;20218;-81
2021/12/10 07:23:36;;;;;;;2.00;1.55;;;4.80;89.40;;;;;;5015198;28;20273;-82
2021/12/10 07:26:03;;;;;;;4.22;2.20;;;4.80;89.50;;;;;;5031725;28;20173;-82
2021/12/10 07:28:29;;;;;;;2.42;1.80;;;4.60;89.60;;;;;;5044860;28;20433;-81
2021/12/10 07:30:55;;;;;;;2.40;1.80;;;4.60;89.80;;;;;;5057916;28;20258;-80
2021/12/10 07:33:20;;;;;;;1.95;1.65;;;4.80;90.00;;;;;;5055113;28;20448;-81
2021/12/10 07:35:49;;;;;;;1.30;1.20;;;4.70;90.00;;;;;;5048661;28;20207;-80
2021/12/10 07:38:15;;;;;;;5.43;2.55;;;4.70;90.00;;;;;;5050996;28;20427;-81
2021/12/10 07:40:41;;;;;;;3.53;1.60;;;4.70;89.90;;;;;;5044852;28;20184;-82
2021/12/10 07:43:08;;;;;;;2.97;1.30;;;4.90;90.00;;;;;;5031916;28;20183;-81
2021/12/10 07:45:35;;;;;;;5.88;2.08;;;4.90;89.90;;;;;;5040610;28;20198;-82
2021/12/10 07:48:07;;;;;;;2.20;1.60;;;4.80;89.70;;;;;;5046920;28;20223;-82
2021/12/10 07:50:36;;;;;;;2.38;1.58;;;4.70;89.50;;;;;;5051324;28;20197;-82
2021/12/10 07:53:04;;;;;;;1.58;1.48;;;4.80;89.60;;;;;;5026784;28;20189;-81
2021/12/10 07:55:33;;;;;;;5.20;2.20;;;4.80;89.40;;;;;;5045277;28;20201;-81
2021/12/10 07:58:01;;;;;;;7.00;1.95;;;4.70;89.40;;;;;;5057053;28;20204;-80
2021/12/10 08:00:31;;;;;;;3.83;1.70;;;4.60;89.50;;;;;;5051004;28;20284;-80
2021/12/10 08:02:57;;;;;;;1.58;1.48;;;4.70;89.70;;;;;;5054423;28;20181;-81
2021/12/10 08:05:24;;;;;;;3.03;2.03;;;4.60;89.70;;;;;;5056064;28;20285;-82
2021/12/10 08:07:52;;;;;;;2.35;1.90;;;4.60;89.90;;;;;;5048812;28;20224;-81
2021/12/10 08:10:18;;;;;;;2.10;1.98;;;4.70;90.10;;;;;;5050572;28;20565;-81
2021/12/10 08:12:44;;;;;;;2.08;1.75;;;4.60;90.10;;;;;;5059895;28;20180;-81
2021/12/10 08:15:10;;;;;;;2.10;2.00;;;4.70;90.30;;;;;;5045712;28;20197;-81
2021/12/10 08:17:36;;;;;;;5.15;2.65;;;4.70;90.30;;;;;;5052603;28;20174;-82
2021/12/10 08:20:05;;;;;;;1.75;1.65;;;4.80;90.10;;;;;;5038743;28;20944;-79
2021/12/10 08:22:31;;;;;;;5.65;2.20;;;4.90;90.20;;;;;;5033790;28;20217;-79
2021/12/10 08:24:57;;;;;;;2.53;2.33;;;4.90;90.10;;;;;;5037306;28;20256;-78
2021/12/10 08:27:22;;;;;;;3.20;2.03;;;4.80;90.00;;;;;;5043636;28;20213;-78
2021/12/10 08:29:48;;;;;;;2.47;2.23;;;4.70;90.00;;;;;;5053560;28;20209;-79
2021/12/10 08:32:19;;;;;;;1.95;1.85;;;4.70;90.00;;;;;;5032233;28;20197;-79
2021/12/10 08:34:46;;;;;;;2.85;2.35;;;4.70;90.00;;;;;;5020896;28;20205;-78
2021/12/10 08:37:12;;;;;;;2.80;2.60;;;4.90;90.10;;;;;;5019078;28;20182;-78
2021/12/10 08:39:38;;;;;;;5.60;2.63;;;4.90;90.10;;;;;;5018452;28;20197;-79
2021/12/10 08:42:05;;;;;;;4.18;2.53;;;4.70;90.10;;;;;;5016092;28;20190;-79
2021/12/10 08:44:31;;;;;;;3.90;3.17;;;4.70;90.20;;;;;;5015936;28;20752;-79
2021/12/10 08:46:58;;;;;;;3.87;2.30;;;4.70;90.30;;;;;;5018764;28;20379;-79
2021/12/10 08:49:24;;;;;;;6.85;2.33;;;4.60;90.20;;;;;;5018461;28;20786;-79
2021/12/10 08:51:53;;;;;;;2.47;2.10;;;4.60;90.40;;;;;;5003064;28;20178;-78
2021/12/10 08:54:23;;;;;;;2.80;2.15;;;4.70;90.50;;;;;;5018025;28;20202;-80
2021/12/10 08:56:49;;;;;;;3.90;2.88;;;4.70;90.50;;;;;;5017955;28;20240;-80
2021/12/10 08:59:16;;;;;;;8.80;2.83;;;4.80;90.40;;;;;;5017513;28;20658;-80
2021/12/10 09:01:47;;;;;;;4.47;3.38;;;4.60;90.20;;;;;;5014434;28;20488;-79
2021/12/10 09:04:14;;;;;;;3.55;2.80;;;4.60;90.30;;;;;;5033212;28;20217;-80
2021/12/10 09:06:43;;;;;;;3.72;3.38;;;4.60;90.40;;;;;;5019222;28;20202;-80
2021/12/10 09:09:12;;;;;;;4.25;3.35;;;4.40;90.20;;;;;;5029274;28;20204;-80
2021/12/10 09:11:40;;;;;;;3.22;2.92;;;4.20;90.10;;;;;;5021616;28;20588;-80
2021/12/10 09:14:07;;;;;;;5.63;4.07;;;4.20;90.50;;;;;;5037286;28;20272;-80
2021/12/10 09:16:35;;;;;;;5.18;2.85;;;4.30;90.90;;;;;;5035232;28;20174;-80
2021/12/10 09:19:05;;;;;;;3.70;3.13;;;4.30;91.00;;;;;;5037408;28;20181;-80
2021/12/10 09:21:33;;;;;;;5.10;3.97;;;4.20;90.80;;;;;;5038934;28;20212;-80
2021/12/10 09:24:04;;;;;;;5.25;3.63;;;4.20;91.10;;;;;;5057244;28;20562;-80
2021/12/10 09:26:34;;;;;;;10.52;4.07;;;4.40;91.20;;;;;;5039308;28;20199;-80
2021/12/10 09:29:03;;;;;;;5.75;4.65;;;4.50;91.20;;;;;;5037388;28;20185;-79
2021/12/10 09:31:29;;;;;;;4.97;3.20;;;4.30;90.80;;;;;;5037559;28;20173;-80
2021/12/10 09:33:57;;;;;;;8.77;3.10;;;4.40;90.90;;;;;;5037122;28;20198;-79
2021/12/10 09:36:24;;;;;;;10.00;5.30;;;4.30;90.80;;;;;;5032448;28;20269;-79
2021/12/10 09:38:50;;;;;;;4.93;3.40;;;4.50;91.00;;;;;;5016161;28;20178;-79
2021/12/10 09:41:18;;;;;;;7.93;4.53;;;4.60;90.90;;;;;;5022910;28;20173;-79
2021/12/10 09:43:44;;;;;;;5.40;4.22;;;4.70;90.90;;;;;;5014586;28;20205;-80
2021/12/10 09:46:11;;;;;;;3.55;2.85;;;4.50;90.40;;;;;;5018775;28;20179;-81
2021/12/10 09:48:39;;;;;;;4.05;2.42;;;4.40;90.40;;;;;;5038786;28;20182;-82
2021/12/10 09:51:33;;;;;;;5.60;3.45;;;4.50;90.40;;;;;;5046967;28;20173;-80
2021/12/10 09:54:04;;;;;;;4.35;2.75;;;4.60;90.30;;;;;;5050877;28;20267;-80
2021/12/10 09:56:31;;;;;;;4.85;3.70;;;4.70;90.30;;;;;;5059833;28;20172;-80
2021/12/10 09:58:57;;;;;;;4.03;2.85;;;4.90;90.20;;;;;;5061811;28;20181;-80
2021/12/10 10:01:30;;;;;;;8.93;4.25;;;4.90;90.00;;;;;;5046269;28;20178;-81
2021/12/10 10:04:01;;;;;;;4.75;3.60;;;4.90;89.90;;;;;;5033296;28;20745;-81
2021/12/10 10:06:40;;;;;;;7.25;4.47;;;4.90;89.70;;;;;;5056754;28;20181;-80
2021/12/10 10:09:09;;;;;;;5.43;3.55;;;4.80;89.50;;;;;;5030232;28;20173;-80
2021/12/10 10:11:35;;;;;;;5.18;4.35;;;5.00;89.60;;;;;;5055332;28;20166;-81
2021/12/10 10:14:03;;;;;;;7.67;4.17;;;4.90;89.60;;;;;;5059721;28;20193;-81
2021/12/10 10:16:31;;;;;;;8.55;4.22;;;5.00;89.60;;;;;;5052905;28;20528;-80
2021/12/10 10:18:58;;;;;;;4.78;2.97;;;4.90;89.50;;;;;;5038328;28;20182;-81
2021/12/10 10:21:28;;;;;;;4.05;3.08;;;4.50;89.30;;;;;;5029539;28;20197;-82
2021/12/10 10:23:54;;;;;;;8.10;3.83;;;4.50;89.70;;;;;;5055142;28;20193;-81
2021/12/10 10:26:32;;;;;;;4.07;3.38;;;4.50;89.90;;;;;;5052974;28;20262;-82
2021/12/10 10:29:06;;;;;;;3.67;3.20;;;4.50;90.20;;;;;;5041483;28;20179;-81
2021/12/10 10:31:34;;;;;;;4.63;3.72;;;4.40;90.40;;;;;;5038530;28;20177;-81
2021/12/10 10:34:01;;;;;;;3.95;3.03;;;4.70;90.70;;;;;;5038610;28;20201;-80
2021/12/10 10:36:31;;;;;;;5.45;4.57;;;4.70;90.70;;;;;;5021737;28;20871;-80
2021/12/10 10:39:09;;;;;;;5.30;3.35;;;4.50;90.60;;;;;;5021472;28;20206;-81
2021/12/10 10:41:38;;;;;;;6.18;2.78;;;4.80;90.70;;;;;;5021756;28;20179;-81
2021/12/10 10:44:05;;;;;;;4.63;3.10;;;4.80;90.70;;;;;;5021251;28;20203;-82
2021/12/10 10:46:32;;;;;;;2.95;2.75;;;4.80;90.70;;;;;;5021477;28;20226;-81
2021/12/10 10:48:58;;;;;;;3.95;2.80;;;4.90;90.80;;;;;;5024008;28;20190;-80
2021/12/10 10:51:36;;;;;;;2.78;2.45;;;5.00;90.70;;;;;;5041404;28;20182;-81
2021/12/10 10:54:08;;;;;;;3.80;3.20;;;5.10;90.60;;;;;;5042701;28;20731;-81
2021/12/10 10:56:38;;;;;;;4.65;3.47;;;5.00;90.30;;;;;;5042214;28;20645;-81
2021/12/10 10:59:30;;;;;;;3.28;2.47;;;5.10;90.30;;;;;;5041308;28;20182;-81
2021/12/10 11:02:07;;;;;;;4.13;2.80;;;5.10;90.10;;;;;;5043992;28;20174;-81
2021/12/10 11:04:36;;;;;;;4.80;3.72;;;5.30;90.10;;;;;;5041590;28;20208;-81
2021/12/10 11:07:37;;;;;;;4.72;3.72;;;5.30;89.90;;;;;;5042610;28;20205;-81
2021/12/10 11:10:06;;;;;;;5.25;3.60;;;5.20;89.60;;;;;;5019846;28;20271;-81
2021/12/10 11:12:36;;;;;;;5.47;3.42;;;5.40;89.70;;;;;;5021406;28;20270;-81
2021/12/10 11:15:18;;;;;;;4.40;3.05;;;5.40;89.60;;;;;;5023023;28;20214;-81
2021/12/10 11:17:49;;;;;;;5.15;4.63;;;5.40;89.50;;;;;;5022326;28;20209;-81
2021/12/10 11:20:29;;;;;;;5.57;4.03;;;5.50;89.50;;;;;;5021408;28;20213;-82
2021/12/10 11:22:59;;;;;;;5.25;3.88;;;5.20;89.10;;;;;;5022848;28;20202;-84
2021/12/10 11:25:31;;;;;;;6.95;4.50;;;5.20;89.40;;;;;;5023771;28;20256;-82
2021/12/10 11:28:14;;;;;;;7.78;4.15;;;5.30;89.60;;;;;;5028187;28;20199;-82
2021/12/10 11:30:44;;;;;;;4.38;2.45;;;5.40;89.50;;;;;;5028047;28;20166;-79
2021/12/10 11:33:16;;;;;;;4.40;3.90;;;5.10;89.10;;;;;;5005543;28;20186;-80
2021/12/10 11:35:56;;;;;;;8.40;5.93;;;5.00;88.90;;;;;;5018688;28;20198;-80
2021/12/10 11:38:28;;;;;;;7.60;5.57;;;4.80;89.00;;;;;;5018401;28;20187;-80
2021/12/10 11:41:06;;;;;;;4.35;3.95;;;5.00;89.30;;;;;;5021210;28;20198;-79
2021/12/10 11:49:22;;;;;;;4.95;3.75;;;5.10;89.90;;;;;;5026743;28;20192;-80
2021/12/10 11:52:25;;;;;;;6.40;3.70;;;4.70;89.30;;;;;;5038251;28;20225;-81
2021/12/10 11:55:07;;;;;;;5.25;3.50;;;4.60;89.30;;;;;;5039146;28;20254;-81
2021/12/10 11:57:52;;;;;;;4.28;3.20;;;4.70;89.40;;;;;;5042207;28;20199;-84
2021/12/10 12:00:23;;;;;;;7.80;5.38;;;4.80;89.50;;;;;;5052212;28;20182;-86
2021/12/10 12:02:53;;;;;;;5.15;4.20;;;4.90;89.70;;;;;;5061494;28;20203;-87
2021/12/10 12:05:26;;;;;;;9.95;5.18;;;5.10;89.80;;;;;;5049534;28;20209;-87
2021/12/10 12:07:54;;;;;;;6.43;4.90;;;5.20;89.70;;;;;;5040547;28;20240;-87
2021/12/10 12:10:29;;;;;;;6.03;4.13;;;5.00;89.60;;;;;;5035398;28;20189;-87
2021/12/10 12:13:24;;;;;;;5.90;5.03;;;5.00;89.80;;;;;;5046426;28;20192;-88
2021/12/10 12:15:56;;;;;;;4.50;4.05;;;5.00;89.80;;;;;;5047809;28;20201;-88
2021/12/10 12:18:50;;;;;;;7.57;4.78;;;4.80;89.70;;;;;;5047073;28;20271;-88
2021/12/10 12:27:14;;;;;;;3.70;3.40;;;5.50;89.20;;;;;;5065010;28;20211;-82
2021/12/10 12:29:45;;;;;;;5.90;4.32;;;5.40;88.90;;;;;;5061325;28;20226;-82
2021/12/10 12:32:14;;;;;;;8.27;6.00;;;5.20;88.70;;;;;;5046157;28;20191;-82
2021/12/10 12:34:40;;;;;;;8.40;6.00;;;5.10;88.50;;;;;;5065162;28;20209;-83
2021/12/10 12:37:09;;;;;;;8.93;5.57;;;4.90;88.10;;;;;;5064948;28;20182;-81
2021/12/10 12:39:46;;;;;;;5.65;4.80;;;4.90;87.60;;;;;;5064681;28;20173;-82
2021/12/10 12:42:23;;;;;;;10.95;5.32;;;5.00;87.40;;;;;;5047587;28;20269;-81
2021/12/10 12:45:14;;;;;;;5.45;4.80;;;5.20;87.40;;;;;;5041842;28;20201;-82
2021/12/10 12:47:44;;;;;;;6.95;5.93;;;5.60;87.60;;;;;;5046506;28;20216;-82
2021/12/10 12:50:19;;;;;;;7.50;6.00;;;5.50;87.40;;;;;;5016217;28;20209;-82
2021/12/10 12:53:03;;;;;;;9.23;6.00;;;5.20;87.10;;;;;;5016186;28;20676;-82
2021/12/10 12:55:53;;;;;;;8.45;5.60;;;5.10;87.00;;;;;;5015520;28;20202;-83
2021/12/10 12:58:43;;;;;;;8.70;6.00;;;5.10;86.90;;;;;;5028084;28;20313;-83
2021/12/10 13:01:24;;;;;;;8.90;6.70;;;4.90;86.70;;;;;;5035171;28;20653;-82
2021/12/10 13:04:10;;;;;;;9.20;6.95;;;4.70;86.30;;;;;;5039540;28;20197;-81
2021/12/10 13:06:54;;;;;;;10.93;7.63;;;4.70;86.30;;;;;;5036627;28;20272;-83
2021/12/10 13:09:40;;;;;;;10.05;7.10;;;4.80;86.40;;;;;;5022137;28;20235;-83
2021/12/10 13:12:24;;;;;;;12.82;8.10;;;4.70;86.30;;;;;;5018553;28;20182;-83
2021/12/10 13:15:08;;;;;;;14.55;8.70;;;4.70;86.50;;;;;;5034486;28;20290;-84
2021/12/10 13:17:45;;;;;;;12.48;8.48;;;4.80;86.50;;;;;;5035591;28;20178;-83
2021/12/10 13:20:22;;;;;;;12.88;8.65;;;4.90;86.50;;;;;;5016323;28;20240;-83
2021/12/10 13:22:52;;;;;;;21.42;10.68;;;4.90;86.50;;;;;;5038183;28;20591;-82
2021/12/10 13:25:21;;;;;;;18.23;10.48;;;4.90;86.40;;;;;;5042982;28;20196;-84
2021/12/10 13:27:47;;;;;;;27.50;14.75;;;4.80;86.30;;;;;;5048468;28;20209;-85
2021/12/10 13:30:19;;;;;;;31.15;15.55;;;4.80;86.20;;;;;;5041680;28;20193;-85
2021/12/10 13:32:47;;;;;;;33.38;16.75;;;4.80;86.30;;;;;;5041071;28;20186;-85
2021/12/10 13:35:15;;;;;;;28.33;16.45;;;4.70;86.30;;;;;;5040942;28;20261;-85